createdAt,value
2019-05-13T00:00:40.876Z,8.37
2019-05-13T00:01:40.876Z,8.41
2019-05-13T00:02:40.871Z,8.31
2019-05-13T00:03:40.852Z,8.30
2019-05-13T00:04:40.845Z,8.16
2019-05-13T00:05:40.845Z,8.16
2019-05-13T00:06:53.156Z,8.26
2019-05-13T00:07:40.817Z,8.28
2019-05-13T00:08:40.810Z,8.18
2019-05-13T00:09:40.801Z,8.15
2019-05-13T00:10:40.788Z,8.15
2019-05-13T00:11:40.779Z,8.26
2019-05-13T00:12:40.775Z,8.13
2019-05-13T00:13:40.757Z,8.18
2019-05-13T00:14:40.750Z,8.09
2019-05-13T00:15:40.740Z,8.12
2019-05-13T00:16:40.733Z,8.03
2019-05-13T00:17:40.722Z,8.10
2019-05-13T00:18:40.709Z,8.05
2019-05-13T00:19:40.703Z,8.10
2019-05-13T00:20:40.693Z,8.06
2019-05-13T00:21:40.685Z,7.97
2019-05-13T00:22:40.675Z,8.03
2019-05-13T00:23:40.665Z,8.01
2019-05-13T00:24:40.652Z,8.05
2019-05-13T00:25:40.651Z,8.00
2019-05-13T00:26:40.635Z,8.03
2019-05-13T00:27:40.629Z,7.95
2019-05-13T00:28:40.628Z,7.95
2019-05-13T00:29:40.606Z,7.90
2019-05-13T00:30:40.597Z,7.94
2019-05-13T00:31:40.593Z,7.98
2019-05-13T00:32:40.599Z,7.94
2019-05-13T00:33:40.571Z,7.93
2019-05-13T00:34:40.578Z,7.87
2019-05-13T00:35:40.547Z,7.80
2019-05-13T00:36:40.542Z,7.88
2019-05-13T00:37:40.527Z,7.79
2019-05-13T00:38:40.522Z,7.76
2019-05-13T00:39:40.510Z,7.77
2019-05-13T00:40:40.503Z,7.77
2019-05-13T00:41:40.492Z,7.80
2019-05-13T00:42:40.481Z,7.69
2019-05-13T00:43:40.468Z,7.77
2019-05-13T00:44:40.473Z,7.75
2019-05-13T00:45:40.456Z,7.70
2019-05-13T00:46:40.448Z,7.70
2019-05-13T00:47:40.439Z,7.72
2019-05-13T00:48:40.420Z,7.73
2019-05-13T00:49:40.412Z,7.61
2019-05-13T00:50:40.415Z,7.72
2019-05-13T00:51:40.395Z,7.70
2019-05-13T00:52:40.387Z,7.73
2019-05-13T00:53:40.374Z,7.75
2019-05-13T00:54:40.369Z,7.73
2019-05-13T00:55:40.360Z,7.63
2019-05-13T00:56:40.345Z,7.69
2019-05-13T00:57:40.335Z,7.67
2019-05-13T00:58:40.333Z,7.61
2019-05-13T00:59:40.323Z,7.69
2019-05-13T01:00:40.310Z,7.51
2019-05-13T01:01:40.313Z,7.51
2019-05-13T01:02:40.292Z,7.48
2019-05-13T01:03:40.279Z,7.57
2019-05-13T01:04:40.274Z,7.39
2019-05-13T01:05:40.275Z,7.45
2019-05-13T01:06:40.260Z,7.43
2019-05-13T01:07:40.241Z,7.39
2019-05-13T01:08:40.237Z,7.45
2019-05-13T01:09:40.218Z,7.42
2019-05-13T01:10:40.218Z,7.39
2019-05-13T01:11:40.207Z,7.50
2019-05-13T01:12:40.194Z,7.43
2019-05-13T01:13:40.187Z,7.45
2019-05-13T01:14:40.183Z,7.45
2019-05-13T01:15:40.168Z,7.42
2019-05-13T01:16:40.154Z,7.42
2019-05-13T01:17:40.147Z,7.42
2019-05-13T01:18:40.139Z,7.31
2019-05-13T01:19:40.130Z,7.45
2019-05-13T01:20:40.128Z,7.40
2019-05-13T01:21:40.111Z,7.39
2019-05-13T01:22:40.097Z,7.33
2019-05-13T01:23:40.089Z,7.36
2019-05-13T01:24:40.078Z,7.38
2019-05-13T01:25:40.071Z,7.32
2019-05-13T01:26:40.061Z,7.33
2019-05-13T01:27:40.048Z,7.36
2019-05-13T01:28:40.037Z,7.35
2019-05-13T01:29:40.031Z,7.32
2019-05-13T01:30:40.018Z,7.31
2019-05-13T01:31:40.009Z,7.31
2019-05-13T01:32:39.997Z,7.23
2019-05-13T01:33:39.986Z,7.18
2019-05-13T01:34:39.978Z,7.13
2019-05-13T01:35:39.967Z,7.20
2019-05-13T01:36:39.956Z,7.06
2019-05-13T01:37:43.403Z,7.06
2019-05-13T01:38:39.939Z,7.13
2019-05-13T01:39:39.943Z,7.20
2019-05-13T01:40:39.922Z,7.10
2019-05-13T01:41:39.909Z,7.17
2019-05-13T01:42:39.934Z,7.02
2019-05-13T01:43:39.893Z,7.05
2019-05-13T01:44:39.886Z,7.02
2019-05-13T01:45:39.889Z,7.03
2019-05-13T01:46:39.865Z,6.97
2019-05-13T01:47:39.850Z,6.87
2019-05-13T01:48:39.837Z,6.95
2019-05-13T01:49:39.835Z,6.87
2019-05-13T01:50:39.826Z,6.97
2019-05-13T01:51:39.816Z,6.89
2019-05-13T01:52:39.802Z,6.93
2019-05-13T01:53:39.800Z,6.92
2019-05-13T01:54:39.778Z,6.92
2019-05-13T01:55:39.770Z,6.84
2019-05-13T01:56:39.765Z,6.93
2019-05-13T01:57:39.755Z,6.85
2019-05-13T01:58:39.746Z,6.92
2019-05-13T01:59:39.730Z,6.92
2019-05-13T02:00:39.726Z,6.84
2019-05-13T02:01:39.715Z,6.87
2019-05-13T02:02:39.704Z,6.87
2019-05-13T02:03:39.694Z,6.79
2019-05-13T02:04:39.688Z,6.78
2019-05-13T02:05:39.698Z,6.84
2019-05-13T02:06:39.672Z,6.79
2019-05-13T02:07:53.691Z,6.77
2019-05-13T02:08:39.646Z,6.72
2019-05-13T02:09:39.644Z,6.72
2019-05-13T02:10:39.624Z,6.69
2019-05-13T02:11:39.618Z,6.57
2019-05-13T02:12:39.606Z,6.79
2019-05-13T02:13:39.597Z,6.59
2019-05-13T02:14:39.600Z,6.64
2019-05-13T02:15:39.572Z,6.62
2019-05-13T02:16:39.587Z,6.72
2019-05-13T02:17:39.553Z,6.66
2019-05-13T02:18:39.543Z,6.66
2019-05-13T02:19:39.535Z,6.62
2019-05-13T02:20:39.543Z,6.66
2019-05-13T02:21:39.513Z,6.60
2019-05-13T02:22:39.509Z,6.63
2019-05-13T02:23:39.494Z,6.66
2019-05-13T02:24:39.489Z,6.67
2019-05-13T02:25:39.475Z,6.62
2019-05-13T02:26:39.483Z,6.49
2019-05-13T02:27:39.458Z,6.54
2019-05-13T02:28:39.450Z,6.51
2019-05-13T02:29:39.440Z,6.67
2019-05-13T02:30:39.447Z,6.54
2019-05-13T02:31:46.443Z,6.51
2019-05-13T02:32:42.553Z,6.54
2019-05-13T02:33:42.177Z,6.49
2019-05-13T02:34:43.306Z,6.51
2019-05-13T02:35:43.079Z,6.54
2019-05-13T02:36:39.361Z,6.45
2019-05-13T02:37:42.962Z,6.56
2019-05-13T02:38:42.481Z,6.49
2019-05-13T02:39:42.546Z,6.49
2019-05-13T02:40:42.878Z,6.41
2019-05-13T02:41:39.315Z,6.52
2019-05-13T02:42:39.329Z,6.59
2019-05-13T02:43:42.122Z,6.62
2019-05-13T02:44:39.301Z,6.54
2019-05-13T02:45:42.666Z,6.48
2019-05-13T02:46:39.269Z,6.48
2019-05-13T02:47:39.256Z,6.57
2019-05-13T02:48:41.998Z,6.28
2019-05-13T02:49:42.132Z,6.33
2019-05-13T02:50:39.226Z,6.33
2019-05-13T02:51:42.594Z,6.36
2019-05-13T02:52:39.201Z,6.31
2019-05-13T02:53:39.223Z,6.24
2019-05-13T02:54:42.450Z,6.33
2019-05-13T02:55:39.172Z,6.28
2019-05-13T02:56:41.580Z,6.27
2019-05-13T02:57:43.261Z,6.42
2019-05-13T02:58:42.558Z,6.41
2019-05-13T02:59:42.032Z,6.45
2019-05-13T03:00:39.123Z,6.38
2019-05-13T03:01:39.119Z,6.44
2019-05-13T03:02:39.104Z,6.33
2019-05-13T03:03:39.100Z,6.35
2019-05-13T03:04:39.084Z,6.45
2019-05-13T03:05:39.072Z,6.33
2019-05-13T03:06:39.063Z,6.36
2019-05-13T03:07:42.229Z,6.26
2019-05-13T03:08:46.231Z,6.14
2019-05-13T03:09:42.061Z,6.31
2019-05-13T03:10:39.019Z,6.16
2019-05-13T03:11:41.555Z,6.27
2019-05-13T03:12:41.577Z,6.33
2019-05-13T03:13:38.991Z,6.12
2019-05-13T03:14:39.007Z,6.31
2019-05-13T03:15:38.968Z,6.28
2019-05-13T03:16:38.988Z,6.04
2019-05-13T03:17:38.949Z,6.28
2019-05-13T03:18:38.950Z,6.33
2019-05-13T03:19:38.932Z,6.16
2019-05-13T03:20:38.923Z,6.04
2019-05-13T03:21:38.906Z,6.16
2019-05-13T03:22:38.902Z,6.27
2019-05-13T03:23:38.890Z,6.31
2019-05-13T03:24:38.880Z,6.19
2019-05-13T03:25:38.872Z,6.26
2019-05-13T03:26:38.856Z,6.07
2019-05-13T03:27:38.854Z,6.19
2019-05-13T03:28:38.853Z,6.07
2019-05-13T03:29:38.830Z,6.28
2019-05-13T03:30:38.849Z,6.19
2019-05-13T03:31:38.816Z,6.16
2019-05-13T03:32:46.163Z,6.04
2019-05-13T03:33:45.383Z,6.11
2019-05-13T03:34:44.605Z,5.97
2019-05-13T03:35:44.763Z,6.12
2019-05-13T03:36:44.803Z,6.05
2019-05-13T03:37:38.748Z,6.08
2019-05-13T03:38:58.822Z,5.93
2019-05-13T03:39:38.725Z,5.93
2019-05-13T03:40:42.195Z,5.90
2019-05-13T03:41:42.078Z,5.89
2019-05-13T03:42:38.693Z,5.87
2019-05-13T03:43:38.688Z,5.84
2019-05-13T03:44:38.677Z,5.89
2019-05-13T03:45:38.669Z,6.01
2019-05-13T03:46:42.199Z,5.90
2019-05-13T03:47:38.650Z,5.91
2019-05-13T03:48:38.633Z,5.91
2019-05-13T03:49:38.622Z,5.86
2019-05-13T03:50:38.616Z,5.91
2019-05-13T03:51:38.611Z,5.98
2019-05-13T03:52:38.592Z,5.93
2019-05-13T03:53:38.581Z,5.76
2019-05-13T03:54:38.573Z,5.75
2019-05-13T03:55:38.565Z,5.98
2019-05-13T03:56:38.553Z,5.82
2019-05-13T03:57:38.539Z,5.73
2019-05-13T03:58:38.531Z,5.76
2019-05-13T03:59:38.522Z,5.80
2019-05-13T04:00:38.512Z,5.84
2019-05-13T04:01:38.509Z,5.82
2019-05-13T04:02:38.495Z,5.82
2019-05-13T04:03:38.481Z,5.86
2019-05-13T04:04:38.473Z,5.83
2019-05-13T04:05:38.461Z,5.84
2019-05-13T04:06:38.450Z,5.76
2019-05-13T04:07:38.440Z,5.80
2019-05-13T04:08:38.434Z,5.76
2019-05-13T04:09:38.417Z,5.76
2019-05-13T04:10:38.411Z,5.80
2019-05-13T04:11:38.404Z,5.76
2019-05-13T04:12:38.400Z,5.73
2019-05-13T04:13:38.386Z,5.79
2019-05-13T04:14:38.370Z,5.73
2019-05-13T04:15:38.360Z,5.75
2019-05-13T04:16:38.347Z,5.69
2019-05-13T04:17:38.340Z,5.73
2019-05-13T04:18:38.337Z,5.82
2019-05-13T04:19:38.326Z,5.66
2019-05-13T04:20:38.304Z,5.83
2019-05-13T04:21:38.297Z,5.75
2019-05-13T04:22:38.282Z,5.84
2019-05-13T04:23:38.282Z,5.80
2019-05-13T04:24:38.269Z,5.80
2019-05-13T04:25:39.820Z,5.80
2019-05-13T04:26:38.267Z,5.80
2019-05-13T04:27:38.234Z,5.79
2019-05-13T04:28:38.224Z,5.80
2019-05-13T04:29:38.220Z,5.84
2019-05-13T04:30:38.214Z,5.80
2019-05-13T04:31:38.199Z,5.79
2019-05-13T04:32:38.183Z,5.80
2019-05-13T04:33:38.175Z,5.84
2019-05-13T04:34:38.164Z,5.86
2019-05-13T04:35:38.151Z,5.91
2019-05-13T04:36:38.146Z,5.97
2019-05-13T04:37:38.133Z,5.93
2019-05-13T04:38:38.123Z,5.93
2019-05-13T04:39:47.512Z,6.01
2019-05-13T04:40:38.108Z,5.91
2019-05-13T04:41:38.092Z,6.02
2019-05-13T04:42:38.115Z,6.16
2019-05-13T04:43:38.073Z,6.14
2019-05-13T04:44:38.069Z,6.09
2019-05-13T04:45:38.047Z,6.19
2019-05-13T04:46:38.050Z,6.26
2019-05-13T04:47:38.027Z,6.39
2019-05-13T04:48:40.526Z,6.31
2019-05-13T04:49:38.009Z,6.39
2019-05-13T04:50:38.007Z,6.39
2019-05-13T04:51:37.985Z,6.42
2019-05-13T04:52:37.987Z,6.59
2019-05-13T04:53:37.970Z,6.46
2019-05-13T04:54:37.956Z,6.64
2019-05-13T04:55:37.953Z,6.64
2019-05-13T04:56:37.945Z,6.78
2019-05-13T04:57:37.929Z,6.95
2019-05-13T04:58:37.925Z,6.89
2019-05-13T04:59:41.419Z,6.97
2019-05-13T05:00:37.901Z,7.05
2019-05-13T05:01:40.120Z,7.07
2019-05-13T05:02:44.693Z,7.07
2019-05-13T05:03:44.689Z,7.18
2019-05-13T05:04:37.858Z,7.18
2019-05-13T05:05:37.855Z,7.18
2019-05-13T05:06:37.853Z,7.25
2019-05-13T05:07:37.831Z,7.31
2019-05-13T05:08:37.823Z,7.50
2019-05-13T05:09:45.232Z,7.43
2019-05-13T05:10:39.029Z,7.60
2019-05-13T05:11:37.798Z,7.69
2019-05-13T05:12:37.785Z,7.66
2019-05-13T05:13:37.784Z,7.73
2019-05-13T05:14:37.766Z,7.82
2019-05-13T05:15:37.766Z,7.75
2019-05-13T05:16:41.099Z,7.75
2019-05-13T05:17:37.738Z,7.90
2019-05-13T05:18:37.733Z,7.97
2019-05-13T05:19:37.722Z,7.73
2019-05-13T05:20:37.733Z,8.06
2019-05-13T05:21:37.728Z,8.19
2019-05-13T05:22:37.707Z,8.10
2019-05-13T05:23:37.689Z,8.24
2019-05-13T05:24:37.677Z,8.26
2019-05-13T05:25:37.668Z,8.26
2019-05-13T05:26:37.670Z,8.41
2019-05-13T05:27:37.659Z,8.36
2019-05-13T05:28:37.660Z,8.49
2019-05-13T05:29:37.642Z,8.67
2019-05-13T05:30:37.629Z,8.95
2019-05-13T05:31:37.624Z,9.02
2019-05-13T05:32:37.618Z,8.99
2019-05-13T05:33:37.609Z,8.94
2019-05-13T05:34:37.600Z,8.97
2019-05-13T05:35:37.587Z,9.13
2019-05-13T05:36:37.584Z,9.10
2019-05-13T05:37:37.576Z,9.13
2019-05-13T05:38:37.569Z,9.26
2019-05-13T05:39:37.560Z,9.41
2019-05-13T05:40:37.549Z,9.47
2019-05-13T05:41:37.550Z,9.65
2019-05-13T05:42:37.550Z,9.65
2019-05-13T05:43:37.530Z,9.77
2019-05-13T05:44:37.533Z,9.89
2019-05-13T05:45:37.521Z,9.97
2019-05-13T05:46:37.516Z,9.97
2019-05-13T05:47:37.504Z,9.99
2019-05-13T05:48:37.496Z,10.13
2019-05-13T05:49:37.500Z,10.53
2019-05-13T05:50:37.493Z,10.69
2019-05-13T05:51:37.478Z,10.61
2019-05-13T05:52:37.477Z,10.75
2019-05-13T05:53:37.468Z,10.92
2019-05-13T05:54:37.465Z,11.00
2019-05-13T05:55:37.464Z,11.10
2019-05-13T05:56:37.456Z,11.29
2019-05-13T05:57:37.448Z,11.40
2019-05-13T05:58:37.450Z,11.51
2019-05-13T05:59:37.440Z,11.90
2019-05-13T06:00:37.443Z,12.00
2019-05-13T06:01:37.572Z,12.12
2019-05-13T06:02:37.424Z,12.20
2019-05-13T06:03:37.426Z,12.25
2019-05-13T06:04:37.413Z,12.10
2019-05-13T06:05:37.414Z,12.24
2019-05-13T06:06:37.406Z,12.47
2019-05-13T06:07:37.405Z,12.46
2019-05-13T06:08:37.402Z,12.43
2019-05-13T06:09:37.393Z,12.47
2019-05-13T06:10:49.139Z,12.47
2019-05-13T06:11:37.390Z,12.54
2019-05-13T06:12:37.411Z,12.25
2019-05-13T06:13:37.381Z,12.62
2019-05-13T06:14:37.381Z,12.62
2019-05-13T06:15:37.381Z,12.80
2019-05-13T06:16:37.379Z,12.70
2019-05-13T06:17:37.372Z,12.82
2019-05-13T06:18:37.370Z,12.45
2019-05-13T06:19:37.361Z,12.39
2019-05-13T06:20:37.375Z,12.31
2019-05-13T06:21:37.362Z,12.17
2019-05-13T06:22:37.349Z,11.99
2019-05-13T06:23:37.355Z,12.06
2019-05-13T06:24:37.348Z,12.02
2019-05-13T06:25:37.346Z,12.18
2019-05-13T06:26:37.352Z,12.25
2019-05-13T06:27:37.333Z,12.31
2019-05-13T06:28:37.333Z,12.46
2019-05-13T06:29:37.339Z,12.53
2019-05-13T06:30:37.331Z,12.62
2019-05-13T06:31:37.324Z,12.49
2019-05-13T06:32:37.322Z,12.07
2019-05-13T06:33:37.314Z,12.22
2019-05-13T06:34:37.310Z,12.06
2019-05-13T06:35:37.316Z,12.04
2019-05-13T06:36:37.300Z,12.20
2019-05-13T06:37:37.297Z,12.31
2019-05-13T06:38:37.293Z,12.28
2019-05-13T06:39:37.286Z,12.32
2019-05-13T06:40:37.289Z,12.37
2019-05-13T06:41:37.296Z,12.50
2019-05-13T06:42:37.282Z,12.68
2019-05-13T06:43:37.271Z,12.75
2019-05-13T06:44:37.271Z,12.82
2019-05-13T06:45:37.261Z,13.00
2019-05-13T06:46:37.282Z,13.15
2019-05-13T06:47:37.259Z,13.19
2019-05-13T06:48:37.255Z,13.30
2019-05-13T06:49:37.265Z,13.28
2019-05-13T06:50:37.244Z,13.25
2019-05-13T06:51:37.241Z,13.31
2019-05-13T06:52:37.265Z,13.31
2019-05-13T06:53:37.231Z,13.33
2019-05-13T06:54:37.231Z,13.37
2019-05-13T06:55:37.221Z,13.56
2019-05-13T06:56:37.219Z,13.33
2019-05-13T06:57:37.218Z,12.98
2019-05-13T06:58:37.218Z,12.85
2019-05-13T06:59:37.213Z,12.78
2019-05-13T07:00:37.216Z,12.97
2019-05-13T07:01:37.204Z,12.95
2019-05-13T07:02:37.197Z,13.00
2019-05-13T07:03:37.199Z,13.08
2019-05-13T07:04:37.192Z,13.12
2019-05-13T07:05:37.191Z,13.30
2019-05-13T07:06:37.182Z,13.33
2019-05-13T07:07:37.182Z,13.71
2019-05-13T07:08:37.168Z,13.81
2019-05-13T07:09:37.185Z,13.99
2019-05-13T07:10:37.170Z,14.20
2019-05-13T07:11:37.220Z,14.26
2019-05-13T07:12:37.212Z,14.30
2019-05-13T07:13:37.163Z,14.63
2019-05-13T07:14:37.154Z,14.63
2019-05-13T07:15:37.156Z,14.62
2019-05-13T07:16:37.157Z,14.55
2019-05-13T07:17:37.149Z,14.58
2019-05-13T07:18:37.145Z,14.66
2019-05-13T07:19:37.144Z,14.69
2019-05-13T07:20:37.144Z,14.66
2019-05-13T07:21:37.141Z,14.66
2019-05-13T07:22:37.137Z,14.70
2019-05-13T07:23:37.134Z,14.59
2019-05-13T07:24:37.143Z,14.41
2019-05-13T07:25:37.130Z,14.48
2019-05-13T07:26:37.130Z,14.36
2019-05-13T07:27:37.127Z,14.40
2019-05-13T07:28:37.127Z,14.40
2019-05-13T07:29:37.123Z,14.79
2019-05-13T07:30:37.146Z,14.69
2019-05-13T07:31:37.123Z,14.91
2019-05-13T07:32:37.117Z,14.86
2019-05-13T07:33:37.206Z,14.37
2019-05-13T07:34:37.118Z,14.35
2019-05-13T07:35:38.159Z,14.43
2019-05-13T07:36:37.110Z,14.53
2019-05-13T07:37:37.111Z,14.53
2019-05-13T07:38:37.113Z,14.86
2019-05-13T07:39:37.115Z,15.03
2019-05-13T07:40:37.109Z,15.19
2019-05-13T07:41:39.720Z,15.35
2019-05-13T07:42:37.106Z,15.39
2019-05-13T07:43:37.138Z,15.83
2019-05-13T07:44:37.104Z,16.01
2019-05-13T07:45:37.102Z,16.04
2019-05-13T07:46:37.105Z,16.01
2019-05-13T07:47:37.106Z,16.08
2019-05-13T07:48:37.111Z,16.21
2019-05-13T07:49:37.114Z,16.10
2019-05-13T07:50:51.672Z,16.20
2019-05-13T07:51:37.109Z,16.05
2019-05-13T07:52:37.113Z,16.05
2019-05-13T07:53:37.107Z,16.04
2019-05-13T07:54:37.106Z,15.97
2019-05-13T07:55:37.116Z,15.92
2019-05-13T07:56:37.111Z,15.76
2019-05-13T07:57:37.114Z,15.77
2019-05-13T07:58:37.847Z,15.91
2019-05-13T07:59:37.114Z,16.08
2019-05-13T08:00:37.114Z,16.12
2019-05-13T08:01:37.117Z,16.32
2019-05-13T08:02:37.122Z,16.53
2019-05-13T08:03:37.212Z,16.72
2019-05-13T08:04:37.125Z,16.83
2019-05-13T08:05:37.123Z,16.99
2019-05-13T08:06:37.127Z,17.06
2019-05-13T08:07:37.127Z,17.30
2019-05-13T08:08:37.127Z,17.72
2019-05-13T08:09:37.131Z,17.89
2019-05-13T08:10:37.127Z,17.90
2019-05-13T08:11:56.479Z,17.86
2019-05-13T08:12:37.144Z,17.52
2019-05-13T08:13:37.138Z,17.15
2019-05-13T08:14:37.142Z,17.09
2019-05-13T08:15:37.146Z,17.05
2019-05-13T08:16:37.148Z,17.19
2019-05-13T08:17:41.065Z,16.96
2019-05-13T08:18:37.152Z,17.04
2019-05-13T08:19:37.155Z,17.09
2019-05-13T08:20:37.157Z,17.09
2019-05-13T08:21:37.156Z,17.56
2019-05-13T08:22:37.165Z,17.94
2019-05-13T08:23:37.166Z,18.22
2019-05-13T08:24:37.167Z,18.50
2019-05-13T08:25:37.172Z,18.75
2019-05-13T08:26:38.124Z,18.88
2019-05-13T08:27:37.176Z,18.89
2019-05-13T08:28:52.693Z,18.55
2019-05-13T08:29:37.190Z,18.41
2019-05-13T08:30:37.190Z,18.16
2019-05-13T08:31:37.183Z,17.79
2019-05-13T08:32:37.195Z,17.38
2019-05-13T08:33:37.198Z,16.96
2019-05-13T08:34:37.200Z,16.56
2019-05-13T08:35:37.204Z,16.71
2019-05-13T08:36:39.442Z,17.06
2019-05-13T08:37:37.275Z,17.39
2019-05-13T08:38:37.219Z,17.82
2019-05-13T08:39:38.583Z,18.11
2019-05-13T08:40:37.221Z,18.50
2019-05-13T08:41:37.227Z,18.59
2019-05-13T08:42:37.227Z,18.58
2019-05-13T08:43:37.237Z,18.41
2019-05-13T08:44:37.239Z,18.41
2019-05-13T08:45:37.243Z,18.40
2019-05-13T08:46:37.242Z,18.49
2019-05-13T08:47:37.251Z,18.41
2019-05-13T08:48:37.250Z,18.53
2019-05-13T08:49:37.258Z,18.58
2019-05-13T08:50:37.260Z,18.83
2019-05-13T08:51:37.264Z,19.07
2019-05-13T08:52:37.270Z,19.41
2019-05-13T08:53:37.267Z,19.76
2019-05-13T08:54:37.279Z,20.07
2019-05-13T08:55:37.284Z,20.19
2019-05-13T08:56:37.286Z,20.07
2019-05-13T08:57:37.302Z,19.89
2019-05-13T08:58:37.295Z,19.52
2019-05-13T08:59:37.298Z,19.30
2019-05-13T09:00:37.301Z,18.92
2019-05-13T09:01:37.305Z,18.98
2019-05-13T09:02:37.313Z,18.74
2019-05-13T09:03:37.318Z,17.94
2019-05-13T09:04:37.341Z,17.79
2019-05-13T09:05:37.326Z,17.92
2019-05-13T09:06:37.335Z,17.83
2019-05-13T09:07:37.331Z,17.30
2019-05-13T09:08:37.336Z,17.19
2019-05-13T09:09:37.342Z,17.44
2019-05-13T09:10:37.345Z,17.78
2019-05-13T09:11:37.368Z,18.10
2019-05-13T09:12:40.312Z,18.41
2019-05-13T09:13:37.368Z,18.59
2019-05-13T09:14:37.369Z,18.71
2019-05-13T09:15:37.367Z,18.89
2019-05-13T09:16:37.373Z,19.00
2019-05-13T09:17:37.379Z,19.33
2019-05-13T09:18:37.383Z,19.69
2019-05-13T09:19:37.384Z,20.06
2019-05-13T09:20:37.389Z,20.34
2019-05-13T09:21:37.392Z,20.56
2019-05-13T09:22:37.394Z,20.52
2019-05-13T09:23:37.404Z,20.37
2019-05-13T09:24:37.987Z,20.07
2019-05-13T09:25:37.415Z,20.09
2019-05-13T09:26:37.422Z,20.13
2019-05-13T09:27:37.421Z,20.55
2019-05-13T09:28:37.430Z,20.95
2019-05-13T09:29:37.437Z,21.27
2019-05-13T09:30:37.437Z,21.32
2019-05-13T09:31:37.442Z,21.33
2019-05-13T09:32:37.444Z,21.03
2019-05-13T09:33:37.449Z,20.93
2019-05-13T09:34:37.461Z,21.12
2019-05-13T09:35:37.460Z,20.60
2019-05-13T09:36:37.496Z,20.11
2019-05-13T09:37:37.471Z,19.94
2019-05-13T09:38:37.481Z,19.73
2019-05-13T09:39:37.488Z,19.92
2019-05-13T09:40:37.489Z,20.18
2019-05-13T09:41:41.069Z,20.50
2019-05-13T09:42:49.245Z,20.80
2019-05-13T09:43:37.502Z,21.18
2019-05-13T09:44:37.504Z,21.50
2019-05-13T09:45:37.516Z,21.92
2019-05-13T09:46:37.520Z,22.22
2019-05-13T09:47:37.527Z,22.54
2019-05-13T09:48:37.532Z,22.76
2019-05-13T09:49:37.558Z,22.59
2019-05-13T09:50:37.557Z,22.59
2019-05-13T09:51:37.545Z,22.73
2019-05-13T09:52:39.653Z,22.91
2019-05-13T09:53:37.558Z,22.90
2019-05-13T09:54:37.561Z,23.02
2019-05-13T09:55:37.561Z,22.83
2019-05-13T09:56:37.574Z,22.83
2019-05-13T09:57:37.581Z,22.73
2019-05-13T09:58:37.586Z,22.48
2019-05-13T09:59:37.590Z,22.65
2019-05-13T10:00:37.592Z,22.76
2019-05-13T10:01:37.606Z,22.60
2019-05-13T10:02:37.608Z,22.33
2019-05-13T10:03:53.353Z,21.83
2019-05-13T10:04:37.616Z,21.54
2019-05-13T10:05:37.623Z,21.07
2019-05-13T10:06:37.633Z,20.66
2019-05-13T10:07:37.636Z,20.48
2019-05-13T10:08:37.639Z,20.29
2019-05-13T10:09:37.646Z,20.29
2019-05-13T10:10:37.650Z,20.51
2019-05-13T10:11:37.659Z,20.65
2019-05-13T10:12:37.679Z,20.63
2019-05-13T10:13:37.667Z,20.50
2019-05-13T10:14:37.678Z,20.25
2019-05-13T10:15:37.682Z,19.85
2019-05-13T10:16:37.685Z,19.64
2019-05-13T10:17:37.701Z,19.66
2019-05-13T10:18:37.699Z,19.63
2019-05-13T10:19:37.702Z,19.85
2019-05-13T10:20:37.708Z,20.07
2019-05-13T10:21:37.716Z,20.37
2019-05-13T10:22:37.725Z,20.80
2019-05-13T10:23:37.726Z,21.18
2019-05-13T10:24:37.730Z,21.22
2019-05-13T10:25:37.742Z,21.39
2019-05-13T10:26:37.741Z,21.05
2019-05-13T10:27:37.744Z,20.69
2019-05-13T10:28:37.756Z,20.78
2019-05-13T10:29:37.762Z,20.66
2019-05-13T10:30:37.762Z,20.85
2019-05-13T10:31:37.770Z,21.30
2019-05-13T10:32:37.792Z,21.55
2019-05-13T10:33:37.779Z,21.92
2019-05-13T10:34:37.790Z,22.22
2019-05-13T10:35:37.794Z,22.48
2019-05-13T10:36:37.801Z,22.41
2019-05-13T10:37:37.801Z,22.48
2019-05-13T10:38:37.809Z,22.54
2019-05-13T10:39:37.816Z,22.70
2019-05-13T10:40:37.819Z,22.78
2019-05-13T10:41:37.824Z,23.08
2019-05-13T10:42:37.838Z,23.23
2019-05-13T10:43:41.417Z,23.32
2019-05-13T10:44:37.844Z,23.59
2019-05-13T10:45:37.856Z,23.55
2019-05-13T10:46:37.854Z,23.66
2019-05-13T10:47:37.876Z,23.86
2019-05-13T10:48:37.867Z,24.05
2019-05-13T10:49:37.871Z,23.59
2019-05-13T10:50:37.881Z,22.91
2019-05-13T10:51:37.887Z,22.13
2019-05-13T10:52:37.897Z,21.88
2019-05-13T10:53:37.896Z,21.73
2019-05-13T10:54:37.907Z,21.75
2019-05-13T10:55:37.906Z,21.67
2019-05-13T10:56:37.918Z,21.82
2019-05-13T10:57:37.926Z,22.07
2019-05-13T10:58:37.928Z,22.13
2019-05-13T10:59:37.935Z,21.99
2019-05-13T11:00:37.941Z,21.91
2019-05-13T11:01:37.949Z,21.88
2019-05-13T11:02:37.966Z,21.95
2019-05-13T11:03:37.958Z,21.93
2019-05-13T11:04:37.969Z,22.26
2019-05-13T11:05:41.166Z,22.72
2019-05-13T11:06:37.978Z,22.78
2019-05-13T11:07:37.987Z,22.50
2019-05-13T11:08:37.995Z,22.33
2019-05-13T11:09:38.031Z,22.11
2019-05-13T11:10:38.007Z,22.00
2019-05-13T11:11:38.010Z,22.30
2019-05-13T11:12:38.013Z,22.48
2019-05-13T11:13:52.358Z,22.59
2019-05-13T11:14:38.027Z,22.25
2019-05-13T11:15:41.120Z,21.88
2019-05-13T11:16:38.042Z,21.99
2019-05-13T11:17:38.051Z,22.14
2019-05-13T11:18:38.058Z,22.13
2019-05-13T11:19:38.066Z,22.11
2019-05-13T11:20:38.071Z,22.13
2019-05-13T11:21:38.074Z,21.98
2019-05-13T11:22:38.082Z,21.45
2019-05-13T11:23:38.086Z,21.09
2019-05-13T11:24:38.096Z,20.78
2019-05-13T11:25:38.102Z,20.52
2019-05-13T11:26:38.104Z,20.36
2019-05-13T11:27:38.108Z,20.07
2019-05-13T11:28:38.119Z,19.86
2019-05-13T11:29:38.125Z,19.64
2019-05-13T11:30:38.132Z,19.69
2019-05-13T11:31:38.132Z,19.58
2019-05-13T11:32:38.142Z,19.44
2019-05-13T11:33:38.142Z,19.48
2019-05-13T11:34:38.170Z,19.54
2019-05-13T11:35:38.163Z,19.73
2019-05-13T11:36:38.162Z,20.02
2019-05-13T11:37:38.169Z,20.37
2019-05-13T11:38:38.176Z,20.62
2019-05-13T11:39:38.184Z,20.18
2019-05-13T11:40:38.187Z,19.86
2019-05-13T11:41:38.200Z,19.59
2019-05-13T11:42:38.201Z,19.69
2019-05-13T11:43:38.203Z,19.85
2019-05-13T11:44:38.214Z,20.02
2019-05-13T11:45:38.214Z,19.84
2019-05-13T11:46:38.226Z,19.86
2019-05-13T11:47:38.228Z,19.67
2019-05-13T11:48:38.232Z,19.66
2019-05-13T11:49:38.249Z,19.89
2019-05-13T11:50:38.248Z,20.07
2019-05-13T11:51:38.246Z,20.14
2019-05-13T11:52:38.253Z,20.40
2019-05-13T11:53:38.507Z,20.59
2019-05-13T11:54:38.255Z,20.52
2019-05-13T11:55:38.259Z,20.62
2019-05-13T11:56:45.350Z,20.21
2019-05-13T11:57:38.272Z,20.04
2019-05-13T11:58:38.283Z,19.94
2019-05-13T11:59:38.284Z,20.09
2019-05-13T12:00:38.292Z,19.88
2019-05-13T12:01:38.300Z,20.00
2019-05-13T12:02:38.302Z,19.54
2019-05-13T12:03:38.305Z,19.44
2019-05-13T12:04:38.417Z,19.51
2019-05-13T12:05:38.322Z,19.56
2019-05-13T12:06:47.802Z,19.58
2019-05-13T12:07:38.331Z,19.63
2019-05-13T12:08:38.326Z,19.77
2019-05-13T12:09:38.338Z,19.84
2019-05-13T12:10:38.344Z,19.86
2019-05-13T12:11:38.342Z,19.64
2019-05-13T12:12:38.346Z,19.59
2019-05-13T12:13:38.352Z,19.51
2019-05-13T12:14:56.145Z,19.55
2019-05-13T12:15:46.042Z,19.76
2019-05-13T12:16:38.369Z,19.95
2019-05-13T12:17:38.380Z,20.10
2019-05-13T12:18:43.443Z,19.88
2019-05-13T12:19:38.380Z,19.71
2019-05-13T12:20:38.392Z,19.91
2019-05-13T12:21:43.361Z,20.02
2019-05-13T12:22:38.397Z,20.24
2019-05-13T12:23:38.408Z,20.36
2019-05-13T12:24:38.406Z,20.37
2019-05-13T12:25:38.498Z,20.00
2019-05-13T12:26:38.414Z,19.92
2019-05-13T12:27:38.419Z,20.04
2019-05-13T12:28:38.425Z,20.13
2019-05-13T12:29:38.431Z,20.24
2019-05-13T12:30:38.434Z,20.40
2019-05-13T12:31:38.438Z,20.48
2019-05-13T12:32:38.442Z,20.52
2019-05-13T12:33:38.449Z,20.41
2019-05-13T12:34:41.789Z,20.55
2019-05-13T12:35:38.455Z,20.66
2019-05-13T12:36:38.468Z,20.75
2019-05-13T12:37:38.466Z,20.80
2019-05-13T12:38:38.469Z,20.72
2019-05-13T12:39:38.472Z,20.65
2019-05-13T12:40:38.477Z,20.55
2019-05-13T12:41:38.488Z,20.39
2019-05-13T12:42:44.343Z,20.36
2019-05-13T12:43:38.489Z,20.47
2019-05-13T12:44:59.768Z,20.60
2019-05-13T12:45:38.508Z,20.59
2019-05-13T12:46:38.505Z,20.47
2019-05-13T12:47:38.513Z,20.21
2019-05-13T12:48:38.512Z,20.06
2019-05-13T12:49:38.518Z,20.22
2019-05-13T12:50:38.592Z,20.22
2019-05-13T12:51:38.528Z,20.29
2019-05-13T12:52:38.529Z,20.29
2019-05-13T12:53:38.531Z,20.29
2019-05-13T12:54:38.538Z,20.26
2019-05-13T12:55:38.546Z,20.41
2019-05-13T12:56:38.549Z,20.70
2019-05-13T12:57:38.553Z,20.82
2019-05-13T12:58:38.563Z,20.77
2019-05-13T12:59:38.565Z,20.84
2019-05-13T13:00:38.588Z,21.22
2019-05-13T13:01:38.571Z,21.18
2019-05-13T13:02:38.574Z,21.11
2019-05-13T13:03:38.583Z,21.02